Main page
METAR-TAF:

METAR-TAF

Airports :

Greenville, Maine, United States

latitude: 45-28N, longitude: 069-35W, elevation: 1401 ft

Current weather observation

The report was made 1 hour and 2 minutes ago, at 22:56 UTC
Wind 6 mph from the East
Temperature 28°F
Humidity 86%
Pressure 30.05 in. Hg

METAR: KGNR 302256Z AUTO 08005KT M02/M04 A3005 RMK AO1 SLP195 P0005 T10221039

Time: 19:58 (23:58 UTC)


TAF: missing

Weather observations and forecasts of more than 4000 airports (METAR and TAF reports).

The available stations are represented by yellow and red dots on the map.

Hover mouse over dot to see the name of the station.

Then click to see weather observations and forecasts.

To change the map : click on the green buttons with a black cross to zoom in, on the green button with a dash to zoom out, or on the green arrows for adjacent maps.


METAR-TAF: